地図

経路データ

SID SEASON NUMBER BASIN SUBBASIN NAME ISO_TIME NATURE LAT LON WMO_WIND WMO_PRES WMO_AGENCY TRACK_TYPE DIST2LAND LANDFALL IFLAG USA_AGENCY USA_ATCF_ID USA_LAT USA_LON USA_RECORD USA_STATUS USA_WIND USA_PRES USA_SSHS USA_R34_NE USA_R34_SE USA_R34_SW USA_R34_NW USA_R50_NE USA_R50_SE USA_R50_SW USA_R50_NW USA_R64_NE USA_R64_SE USA_R64_SW USA_R64_NW USA_POCI USA_ROCI USA_RMW USA_EYE TOKYO_LAT TOKYO_LON TOKYO_GRADE TOKYO_WIND TOKYO_PRES TOKYO_R50_DIR TOKYO_R50_LONG TOKYO_R50_SHORT TOKYO_R30_DIR TOKYO_R30_LONG TOKYO_R30_SHORT TOKYO_LAND CMA_LAT CMA_LON CMA_CAT CMA_WIND CMA_PRES HKO_LAT HKO_LON HKO_CAT HKO_WIND HKO_PRES NEWDELHI_LAT NEWDELHI_LON NEWDELHI_GRADE NEWDELHI_WIND NEWDELHI_PRES NEWDELHI_CI NEWDELHI_DP NEWDELHI_POCI REUNION_LAT REUNION_LON REUNION_TYPE REUNION_WIND REUNION_PRES REUNION_TNUM REUNION_CI REUNION_RMW REUNION_R34_NE REUNION_R34_SE REUNION_R34_SW REUNION_R34_NW REUNION_R50_NE REUNION_R50_SE REUNION_R50_SW REUNION_R50_NW REUNION_R64_NE REUNION_R64_SE REUNION_R64_SW REUNION_R64_NW BOM_LAT BOM_LON BOM_TYPE BOM_WIND BOM_PRES BOM_TNUM BOM_CI BOM_RMW BOM_R34_NE BOM_R34_SE BOM_R34_SW BOM_R34_NW BOM_R50_NE BOM_R50_SE BOM_R50_SW BOM_R50_NW BOM_R64_NE BOM_R64_SE BOM_R64_SW BOM_R64_NW BOM_ROCI BOM_POCI BOM_EYE BOM_POS_METHOD BOM_PRES_METHOD NADI_LAT NADI_LON NADI_CAT NADI_WIND NADI_PRES WELLINGTON_LAT WELLINGTON_LON WELLINGTON_WIND WELLINGTON_PRES DS824_LAT DS824_LON DS824_STAGE DS824_WIND DS824_PRES TD9636_LAT TD9636_LON TD9636_STAGE TD9636_WIND TD9636_PRES TD9635_LAT TD9635_LON TD9635_WIND TD9635_PRES TD9635_ROCI NEUMANN_LAT NEUMANN_LON NEUMANN_CLASS NEUMANN_WIND NEUMANN_PRES MLC_LAT MLC_LON MLC_CLASS MLC_WIND MLC_PRES USA_GUST BOM_GUST BOM_GUST_PER REUNION_GUST REUNION_GUST_PER USA_SEAHGT USA_SEARAD_NE USA_SEARAD_SE USA_SEARAD_SW USA_SEARAD_NW STORM_SPEED STORM_DIR
1961299N11281 1961 112 NA CS HATTIE 1961-10-26 00:00:00 TS 10.5000 -79.0000 25 hurdat_atl main 112 112 O_____________ hurdat_atl AL091961 10.5000 -79.0000 TD 25 -1 5 281
1961299N11281 1961 112 NA CS HATTIE 1961-10-26 03:00:00 TS 10.5500 -79.2500 main 123 123 P_____________ AL091961 10.5500 -79.2500 TD 27 -1 5 282
1961299N11281 1961 112 NA CS HATTIE 1961-10-26 06:00:00 TS 10.6000 -79.5000 30 hurdat_atl main 123 123 O_____________ hurdat_atl AL091961 10.6000 -79.5000 TD 30 -1 5 282
1961299N11281 1961 112 NA CS HATTIE 1961-10-26 09:00:00 TS 10.6500 -79.7500 main 123 123 P_____________ AL091961 10.6500 -79.7500 TD 32 -1 5 282
1961299N11281 1961 112 NA CS HATTIE 1961-10-26 12:00:00 TS 10.7000 -80.0000 35 hurdat_atl main 138 138 O_____________ hurdat_atl AL091961 10.7000 -80.0000 TS 35 0 5 281
1961299N11281 1961 112 NA CS HATTIE 1961-10-26 15:00:00 TS 10.7425 -80.2500 main 149 149 P_____________ AL091961 10.7425 -80.2500 TS 35 0 5 282
1961299N11281 1961 112 NA CS HATTIE 1961-10-26 18:00:00 TS 10.8000 -80.5000 35 hurdat_atl main 169 169 O_____________ hurdat_atl AL091961 10.8000 -80.5000 TS 35 0 5 286
1961299N11281 1961 112 NA CS HATTIE 1961-10-26 21:00:00 TS 10.8850 -80.7500 main 197 197 P_____________ AL091961 10.8850 -80.7500 TS 35 0 5 292
1961299N11281 1961 112 NA CS HATTIE 1961-10-27 00:00:00 TS 11.0000 -81.0000 35 hurdat_atl main 219 219 O_____________ hurdat_atl AL091961 11.0000 -81.0000 TS 35 0 6 297
1961299N11281 1961 112 NA CS HATTIE 1961-10-27 03:00:00 TS 11.1425 -81.2650 main 220 219 P_____________ AL091961 11.1425 -81.2650 TS 37 0 6 301
1961299N11281 1961 112 NA CS HATTIE 1961-10-27 06:00:00 TS 11.3000 -81.5000 40 hurdat_atl main 219 208 O_____________ hurdat_atl AL091961 11.3000 -81.5000 TS 40 0 5 306
1961299N11281 1961 112 NA CS HATTIE 1961-10-27 09:00:00 TS 11.4425 -81.6875 main 208 196 P_____________ AL091961 11.4425 -81.6875 TS 45 0 4 316
1961299N11281 1961 112 NA CS HATTIE 1961-10-27 12:00:00 TS 11.6000 -81.8000 50 hurdat_atl main 196 196 O_____________ hurdat_atl AL091961 11.6000 -81.8000 TS 50 0 4 339
1961299N11281 1961 112 NA CS HATTIE 1961-10-27 15:00:00 TS 11.7925 -81.8300 main 196 190 P_____________ AL091961 11.7925 -81.8300 TS 55 0 4 0
1961299N11281 1961 112 NA CS HATTIE 1961-10-27 18:00:00 TS 12.0000 -81.8000 60 hurdat_atl main 190 186 O_____________ hurdat_atl AL091961 12.0000 -81.8000 TS 60 0 4 11
1961299N11281 1961 112 NA CS HATTIE 1961-10-27 21:00:00 TS 12.1925 -81.7500 main 186 186 P_____________ AL091961 12.1925 -81.7500 TS 65 1 4 13
1961299N11281 1961 112 NA CS HATTIE 1961-10-28 00:00:00 TS 12.4000 -81.7000 70 hurdat_atl main 195 195 O_____________ hurdat_atl AL091961 12.4000 -81.7000 HU 70 1 4 7
1961299N11281 1961 112 NA CS HATTIE 1961-10-28 03:00:00 TS 12.6350 -81.7000 main 195 195 P_____________ AL091961 12.6350 -81.7000 HU 75 1 5 2
1961299N11281 1961 112 NA CS HATTIE 1961-10-28 06:00:00 TS 12.9000 -81.7000 80 hurdat_atl main 195 194 O_____________ hurdat_atl AL091961 12.9000 -81.7000 HU 80 1 6 4
1961299N11281 1961 112 NA CS HATTIE 1961-10-28 09:00:00 TS 13.1850 -81.6575 main 194 194 P_____________ AL091961 13.1850 -81.6575 HU 85 2 6 9
1961299N11281 1961 112 NA CS HATTIE 1961-10-28 12:00:00 TS 13.5000 -81.6000 90 969 hurdat_atl main 194 181 O_____________ hurdat_atl AL091961 13.5000 -81.6000 HU 90 969 2 7 9
1961299N11281 1961 112 NA CS HATTIE 1961-10-28 15:00:00 TS 13.8350 -81.5500 main 191 183 P_____________ AL091961 13.8350 -81.5500 HU 97 962 3 7 8
1961299N11281 1961 112 NA CS HATTIE 1961-10-28 18:00:00 TS 14.2000 -81.5000 105 956 hurdat_atl main 183 177 O_____________ hurdat_atl AL091961 14.2000 -81.5000 HU 105 956 3 8 7
1961299N11281 1961 112 NA CS HATTIE 1961-10-28 21:00:00 TS 14.5775 -81.4574 main 177 177 P_____________ AL091961 14.5775 -81.4574 HU 107 954 3 8 7
1961299N11281 1961 112 NA CS HATTIE 1961-10-29 00:00:00 TS 15.0000 -81.4000 110 952 hurdat_atl main 182 182 O_____________ hurdat_atl AL091961 15.0000 -81.4000 HU 110 952 3 9 10
1961299N11281 1961 112 NA CS HATTIE 1961-10-29 03:00:00 TS 15.4925 -81.2852 main 201 201 P_____________ AL091961 15.4925 -81.2852 HU 105 956 3 10 11
1961299N11281 1961 112 NA CS HATTIE 1961-10-29 06:00:00 TS 16.0000 -81.2000 100 960 hurdat_atl main 232 232 O_____________ hurdat_atl AL091961 16.0000 -81.2000 HU 100 960 3 10 5
1961299N11281 1961 112 NA CS HATTIE 1961-10-29 09:00:00 TS 16.4649 -81.1976 main 263 263 P_____________ AL091961 16.4649 -81.1976 HU 100 961 3 9 354
1961299N11281 1961 112 NA CS HATTIE 1961-10-29 12:00:00 TS 16.9000 -81.3000 100 963 hurdat_atl main 286 286 O_____________ hurdat_atl AL091961 16.9000 -81.3000 HU 100 963 3 9 341
1961299N11281 1961 112 NA CS HATTIE 1961-10-29 15:00:00 TS 17.3375 -81.5049 main 302 302 P_____________ AL091961 17.3375 -81.5049 HU 100 959 3 9 329
1961299N11281 1961 112 NA CS HATTIE 1961-10-29 18:00:00 TS 17.7000 -81.8000 100 956 hurdat_atl main 318 317 O_____________ hurdat_atl AL091961 17.7000 -81.8000 HU 100 956 3 8 316
1961299N11281 1961 112 NA CS HATTIE 1961-10-29 21:00:00 TS 17.9298 -82.1053 main 322 318 P_____________ AL091961 17.9298 -82.1053 HU 100 957 3 8 301
1961299N11281 1961 112 NA CS HATTIE 1961-10-30 00:00:00 TS 18.1000 -82.5000 100 958 hurdat_atl main 320 312 O_____________ hurdat_atl AL091961 18.1000 -82.5000 HU 100 958 3 10 295
1961299N11281 1961 112 NA CS HATTIE 1961-10-30 03:00:00 TS 18.3377 -83.0421 main 312 306 P_____________ AL091961 18.3377 -83.0421 HU 107 950 3 11 291
1961299N11281 1961 112 NA CS HATTIE 1961-10-30 06:00:00 TS 18.5000 -83.6000 115 942 hurdat_atl main 311 300 O_____________ hurdat_atl AL091961 18.5000 -83.6000 HU 115 942 4 9 280
1961299N11281 1961 112 NA CS HATTIE 1961-10-30 09:00:00 TS 18.4948 -84.0227 main 300 281 P_____________ AL091961 18.4948 -84.0227 HU 117 939 4 8 262
1961299N11281 1961 112 NA CS HATTIE 1961-10-30 12:00:00 TS 18.4000 -84.4000 120 937 hurdat_atl main 281 268 O_____________ hurdat_atl AL091961 18.4000 -84.4000 HU 120 937 4 8 256
1961299N11281 1961 112 NA CS HATTIE 1961-10-30 15:00:00 TS 18.3074 -84.7925 main 268 257 P_____________ AL091961 18.3074 -84.7925 HU 127 930 4 8 255
1961299N11281 1961 112 NA CS HATTIE 1961-10-30 18:00:00 TS 18.2000 -85.2000 135 923 hurdat_atl main 257 228 O_____________ hurdat_atl AL091961 18.2000 -85.2000 HU 135 923 4 8 257
1961299N11281 1961 112 NA CS HATTIE 1961-10-30 21:00:00 TS 18.1223 -85.6272 main 228 181 P_____________ AL091961 18.1223 -85.6272 HU 140 918 5 9 257
1961299N11281 1961 112 NA CS HATTIE 1961-10-31 00:00:00 TS 18.0000 -86.1000 145 914 hurdat_atl main 181 134 O_____________ hurdat_atl AL091961 18.0000 -86.1000 HU 145 914 5 10 250
1961299N11281 1961 112 NA CS HATTIE 1961-10-31 03:00:00 TS 17.7650 -86.6352 main 134 99 P_____________ AL091961 17.7650 -86.6352 HU 140 917 5 12 244
1961299N11281 1961 112 NA CS HATTIE 1961-10-31 06:00:00 TS 17.5000 -87.2000 135 920 hurdat_atl main 100 57 O_____________ hurdat_atl AL091961 17.5000 -87.2000 HU 135 920 4 12 246
1961299N11281 1961 112 NA CS HATTIE 1961-10-31 09:00:00 TS 17.2849 -87.7574 main 47 0 P_____________ AL091961 17.2849 -87.7574 HU 132 922 4 11 249
1961299N11281 1961 112 NA CS HATTIE 1961-10-31 12:00:00 TS 17.1000 -88.3000 130 924 hurdat_atl main 0 0 O_____________ hurdat_atl AL091961 17.1000 -88.3000 L HU 130 924 4 11 252
1961299N11281 1961 112 NA NA HATTIE 1961-10-31 15:00:00 TS 16.9499 -88.8148 main 0 0 P_____________ AL091961 16.9499 -88.8148 HU 102 3 10 253
1961299N11281 1961 112 NA NA HATTIE 1961-10-31 18:00:00 TS 16.8000 -89.3000 75 hurdat_atl main 0 0 O_____________ hurdat_atl AL091961 16.8000 -89.3000 HU 75 1 10 249
1961299N11281 1961 112 NA NA HATTIE 1961-10-31 21:00:00 TS 16.6074 -89.7574 main 0 0 P_____________ AL091961 16.6074 -89.7574 HU 60 0 10 245
1961299N11281 1961 112 NA NA HATTIE 1961-11-01 00:00:00 TS 16.4000 -90.2000 45 hurdat_atl main 0 0 O_____________ hurdat_atl AL091961 16.4000 -90.2000 TS 45 0 9 244
1961299N11281 1961 112 NA NA HATTIE 1961-11-01 03:00:00 TS 16.1977 -90.6477 main 0 0 P_____________ AL091961 16.1977 -90.6477 TS 37 0 10 245
1961299N11281 1961 112 NA NA HATTIE 1961-11-01 06:00:00 TS 16.0000 -91.1000 30 hurdat_atl main 0 O_____________ hurdat_atl AL091961 16.0000 -91.1000 TD 30 -1 10 246

IBTrACS Databaseについて

本データベースは、米国NOAAが公開する1842年以降の世界の熱帯低気圧のベストトラックデータアーカイブInternational Best Track Archive for Climate Stewardship (IBTrACS)を、ウェブで閲覧しやすい形式に変換したものです。

最終更新日:2021-12-08